Time;durP1;ratioP1;P1;durP2;ratioP2;P2;SDS_P1;SDS_P2;PMS_P1;PMS_P2;Temp;Humidity;BMP_temperature;BMP_pressure;BME280_temperature;BME280_humidity;BME280_pressure;Samples;Min_cycle;Max_cycle;Signal;HPM_P1;HPM_P2
2022/01/21 00:00:47;;;;;;;16.95;4.15;;;;;;;;;;5114408;28;20019;-86
2022/01/21 00:03:13;;;;;;;14.48;4.50;;;;;;;;;;5114909;28;20076;-86
2022/01/21 00:05:39;;;;;;;19.60;5.50;;;;;;;;;;5114605;28;20073;-86
2022/01/21 00:08:05;;;;;;;21.52;4.47;;;;;;;;;;5113859;28;20016;-84
2022/01/21 00:10:31;;;;;;;22.70;4.72;;;;;;;;;;5119636;28;20075;-86
2022/01/21 00:12:58;;;;;;;16.65;5.03;;;;;;;;;;5115189;28;20031;-85
2022/01/21 00:15:24;;;;;;;17.50;4.95;;;;;;;;;;5095469;28;20497;-83
2022/01/21 00:17:50;;;;;;;13.75;4.32;;;;;;;;;;5114231;28;20053;-85
2022/01/21 00:31:14;;;;;;;15.30;4.47;;;;;;;;;;5135215;27;20122;-85
2022/01/21 00:33:40;;;;;;;14.63;4.90;;;;;;;;;;5116010;27;20046;-83
2022/01/21 00:36:08;;;;;;;11.88;4.25;;;;;;;;;;5115711;27;20488;-85
2022/01/21 00:38:34;;;;;;;15.15;4.97;;;;;;;;;;5134716;27;20027;-85
2022/01/21 00:41:03;;;;;;;14.57;4.35;;;;;;;;;;5134299;27;20020;-85
2022/01/21 00:43:32;;;;;;;14.00;3.50;;;;;;;;;;5133949;27;20019;-84
2022/01/21 00:45:58;;;;;;;17.58;4.20;;;;;;;;;;5134574;27;20102;-86
2022/01/21 00:48:26;;;;;;;16.98;4.53;;;;;;;;;;5113727;28;20051;-85
2022/01/21 00:50:52;;;;;;;10.20;4.47;;;;;;;;;;5116772;28;20092;-84
2022/01/21 00:53:19;;;;;;;11.77;4.43;;;;;;;;;;5114879;28;20027;-85
2022/01/21 00:55:45;;;;;;;16.92;4.93;;;;;;;;;;5095660;28;20566;-85
2022/01/21 00:58:11;;;;;;;13.93;4.22;;;;;;;;;;5114173;28;20054;-85
2022/01/21 01:00:37;;;;;;;8.23;4.28;;;;;;;;;;5114424;28;20028;-85
2022/01/21 01:03:04;;;;;;;16.45;4.18;;;;;;;;;;5114374;28;20111;-85
2022/01/21 01:05:30;;;;;;;10.18;3.97;;;;;;;;;;5096394;28;20164;-85
2022/01/21 01:07:58;;;;;;;11.32;3.60;;;;;;;;;;5113575;28;20019;-85
2022/01/21 01:10:39;;;;;;;17.05;4.55;;;;;;;;;;5096342;28;20104;-85
2022/01/21 01:21:21;;;;;;;24.30;4.72;;;;;;;;;;5114714;28;20049;-86
2022/01/21 01:29:17;;;;;;;14.30;3.72;;;;;;;;;;5114866;28;20057;-85
2022/01/21 01:31:43;;;;;;;19.58;4.40;;;;;;;;;;5104500;28;20027;-85
2022/01/21 01:34:09;;;;;;;13.13;4.28;;;;;;;;;;5136861;28;20041;-87
2022/01/21 01:36:36;;;;;;;15.13;4.50;;;;;;;;;;5132580;28;20059;-85
2022/01/21 01:39:11;;;;;;;12.82;4.68;;;;;;;;;;5096244;28;20447;-84
2022/01/21 01:41:42;;;;;;;12.90;3.70;;;;;;;;;;5096113;28;20045;-84
2022/01/21 01:49:40;;;;;;;15.73;4.60;;;;;;;;;;5117457;28;20038;-85
2022/01/21 01:52:07;;;;;;;13.73;3.83;;;;;;;;;;5102943;28;20043;-86
2022/01/21 01:54:35;;;;;;;17.13;4.53;;;;;;;;;;5121488;28;20028;-85
2022/01/21 01:57:01;;;;;;;18.90;4.70;;;;;;;;;;5117478;28;20028;-85
2022/01/21 01:59:27;;;;;;;15.93;4.68;;;;;;;;;;5098457;28;20387;-86
2022/01/21 02:01:54;;;;;;;13.18;3.90;;;;;;;;;;5098384;28;20046;-86
2022/01/21 02:04:20;;;;;;;17.92;4.60;;;;;;;;;;5116756;28;20016;-84
2022/01/21 02:06:48;;;;;;;15.18;4.30;;;;;;;;;;5114697;28;20089;-85
2022/01/21 02:09:14;;;;;;;19.52;4.45;;;;;;;;;;5116620;28;20459;-87
2022/01/21 02:11:40;;;;;;;27.98;5.30;;;;;;;;;;5113125;28;20072;-84
2022/01/21 02:14:10;;;;;;;12.23;4.35;;;;;;;;;;5096537;28;20369;-84
2022/01/21 02:17:05;;;;;;;12.20;3.88;;;;;;;;;;5089763;28;20035;-85
2022/01/21 02:22:12;;;;;;;11.73;3.95;;;;;;;;;;5129315;28;20158;-85
2022/01/21 02:24:54;;;;;;;15.73;4.18;;;;;;;;;;5098047;28;20126;-86
2022/01/21 02:27:20;;;;;;;20.30;3.95;;;;;;;;;;5115699;28;20023;-85
2022/01/21 02:29:53;;;;;;;11.32;4.35;;;;;;;;;;5116637;28;20048;-84
2022/01/21 02:32:20;;;;;;;15.10;3.72;;;;;;;;;;5117863;28;20016;-86
2022/01/21 02:34:46;;;;;;;10.45;4.10;;;;;;;;;;5116978;28;20027;-85
2022/01/21 02:37:13;;;;;;;12.68;3.17;;;;;;;;;;5116155;28;20034;-85
2022/01/21 02:39:39;;;;;;;13.50;3.58;;;;;;;;;;5097835;28;20028;-85
2022/01/21 02:42:05;;;;;;;13.38;4.03;;;;;;;;;;5097953;28;20092;-84
2022/01/21 02:44:31;;;;;;;13.85;3.75;;;;;;;;;;5116443;28;20074;-83
2022/01/21 02:47:01;;;;;;;14.60;3.63;;;;;;;;;;5116863;28;20064;-84
2022/01/21 02:49:27;;;;;;;9.40;3.67;;;;;;;;;;5116136;28;20019;-84
2022/01/21 02:51:54;;;;;;;12.30;3.60;;;;;;;;;;5116802;28;20027;-84
2022/01/21 02:54:20;;;;;;;16.40;3.90;;;;;;;;;;5108102;28;20103;-84
2022/01/21 02:56:46;;;;;;;21.52;4.57;;;;;;;;;;5098506;28;20054;-84
2022/01/21 02:59:12;;;;;;;12.88;3.53;;;;;;;;;;5116287;28;20386;-84
2022/01/21 03:01:40;;;;;;;12.80;3.60;;;;;;;;;;5100989;28;20022;-85
2022/01/21 03:04:07;;;;;;;16.50;4.07;;;;;;;;;;5096820;28;20040;-85
2022/01/21 03:06:35;;;;;;;14.32;3.45;;;;;;;;;;5078143;28;20024;-85
2022/01/21 03:09:02;;;;;;;18.52;4.30;;;;;;;;;;5078157;28;20036;-87
2022/01/21 03:11:28;;;;;;;10.90;4.07;;;;;;;;;;5077922;28;20491;-86
2022/01/21 03:13:55;;;;;;;13.38;4.20;;;;;;;;;;5078343;28;20168;-86
2022/01/21 03:16:21;;;;;;;12.35;3.95;;;;;;;;;;5105378;28;20488;-86
2022/01/21 03:18:47;;;;;;;10.38;3.90;;;;;;;;;;5115946;28;20122;-86
2022/01/21 03:21:16;;;;;;;12.77;3.50;;;;;;;;;;5116852;28;20044;-87
2022/01/21 03:23:46;;;;;;;14.25;3.38;;;;;;;;;;5097344;28;20029;-86
2022/01/21 03:26:16;;;;;;;18.30;3.97;;;;;;;;;;5115592;28;20023;-86
2022/01/21 03:28:43;;;;;;;11.37;3.70;;;;;;;;;;5116137;28;20552;-86
2022/01/21 03:31:09;;;;;;;14.95;4.30;;;;;;;;;;5096940;28;20019;-86
2022/01/21 03:33:35;;;;;;;10.88;3.90;;;;;;;;;;5096809;28;20454;-86
2022/01/21 03:36:01;;;;;;;19.20;4.35;;;;;;;;;;5114561;28;20051;-84
2022/01/21 03:38:28;;;;;;;16.00;4.25;;;;;;;;;;5096939;28;20051;-86
2022/01/21 03:40:54;;;;;;;9.63;3.58;;;;;;;;;;5114944;28;20038;-84
2022/01/21 03:43:21;;;;;;;10.93;4.03;;;;;;;;;;5096854;28;20059;-85
2022/01/21 03:45:47;;;;;;;14.80;4.07;;;;;;;;;;5097314;28;20028;-86
2022/01/21 03:48:13;;;;;;;12.40;3.60;;;;;;;;;;5096121;28;20429;-86
2022/01/21 03:50:39;;;;;;;7.75;3.20;;;;;;;;;;5096000;28;20110;-85
2022/01/21 03:53:06;;;;;;;12.88;3.03;;;;;;;;;;5113836;28;20064;-86
2022/01/21 03:55:33;;;;;;;14.57;3.67;;;;;;;;;;5114372;28;20032;-85
2022/01/21 03:57:59;;;;;;;12.45;3.67;;;;;;;;;;5113596;28;20043;-85
2022/01/21 04:00:31;;;;;;;13.93;4.57;;;;;;;;;;5115103;28;20085;-85
2022/01/21 04:02:57;;;;;;;18.50;3.33;;;;;;;;;;5096074;28;20055;-85
2022/01/21 04:05:23;;;;;;;14.35;4.20;;;;;;;;;;5113942;28;20024;-86
2022/01/21 04:07:49;;;;;;;11.55;3.90;;;;;;;;;;5095634;28;20023;-85
2022/01/21 04:10:16;;;;;;;12.05;3.75;;;;;;;;;;5113497;28;20478;-84
2022/01/21 04:12:42;;;;;;;17.35;3.67;;;;;;;;;;5095801;28;20019;-84
2022/01/21 04:15:08;;;;;;;11.88;3.47;;;;;;;;;;5095620;28;20034;-85
2022/01/21 04:17:35;;;;;;;19.58;3.85;;;;;;;;;;5095032;28;20087;-86
2022/01/21 04:20:01;;;;;;;9.85;3.20;;;;;;;;;;5106775;28;20107;-86
2022/01/21 04:22:27;;;;;;;11.93;3.47;;;;;;;;;;5100570;28;20040;-87
2022/01/21 04:24:54;;;;;;;14.88;3.20;;;;;;;;;;5102736;28;20028;-84
2022/01/21 04:27:20;;;;;;;14.10;3.42;;;;;;;;;;5090340;28;20019;-85
2022/01/21 04:29:46;;;;;;;8.48;3.58;;;;;;;;;;5128948;28;20038;-86
2022/01/21 04:32:13;;;;;;;10.73;4.28;;;;;;;;;;5135347;28;20011;-87
2022/01/21 04:34:39;;;;;;;15.55;4.43;;;;;;;;;;5124646;28;20031;-86
2022/01/21 04:37:09;;;;;;;9.10;3.83;;;;;;;;;;5106361;28;20475;-86
2022/01/21 04:39:40;;;;;;;12.20;3.83;;;;;;;;;;5094107;28;20103;-86
2022/01/21 04:47:35;;;;;;;11.93;3.55;;;;;;;;;;5113106;28;20399;-85
2022/01/21 04:50:01;;;;;;;13.88;3.85;;;;;;;;;;5094975;28;20443;-84
2022/01/21 04:52:27;;;;;;;10.10;3.53;;;;;;;;;;5095251;28;20020;-85
2022/01/21 04:54:53;;;;;;;19.55;4.95;;;;;;;;;;5113502;28;20422;-84
2022/01/21 04:57:19;;;;;;;7.53;3.70;;;;;;;;;;5095319;28;20545;-86
2022/01/21 04:59:46;;;;;;;17.13;4.05;;;;;;;;;;5114213;28;20115;-87
2022/01/21 05:02:13;;;;;;;16.67;4.18;;;;;;;;;;5113940;28;20428;-86
2022/01/21 05:04:39;;;;;;;15.10;4.07;;;;;;;;;;5113693;28;20027;-86
2022/01/21 05:07:08;;;;;;;11.63;3.63;;;;;;;;;;5094916;28;20474;-86
2022/01/21 05:09:34;;;;;;;13.32;3.90;;;;;;;;;;5095196;28;20502;-86
2022/01/21 05:12:01;;;;;;;12.60;3.78;;;;;;;;;;5121096;28;20039;-87
2022/01/21 05:15:15;;;;;;;8.10;2.83;;;;;;;;;;5119361;28;20138;-88
2022/01/21 05:17:17;;;;;;;14.25;3.70;;;;;;;;;;5088135;28;20406;-85
2022/01/21 05:19:43;;;;;;;11.30;4.18;;;;;;;;;;5095016;28;20023;-85
2022/01/21 05:22:09;;;;;;;10.80;3.30;;;;;;;;;;5114766;28;20065;-86
2022/01/21 05:24:35;;;;;;;9.70;3.72;;;;;;;;;;5098905;28;20070;-86
2022/01/21 05:27:01;;;;;;;12.80;3.90;;;;;;;;;;5115953;28;20028;-86
2022/01/21 05:29:28;;;;;;;20.83;3.83;;;;;;;;;;5098816;28;20034;-86
2022/01/21 05:31:55;;;;;;;12.27;4.70;;;;;;;;;;5117268;28;20095;-85
2022/01/21 05:34:21;;;;;;;11.68;3.25;;;;;;;;;;5098985;28;20024;-85
2022/01/21 05:36:47;;;;;;;14.07;3.53;;;;;;;;;;5098429;28;20023;-84
2022/01/21 05:39:14;;;;;;;14.43;4.10;;;;;;;;;;5117695;28;20024;-86
2022/01/21 05:41:44;;;;;;;18.58;4.32;;;;;;;;;;5098106;28;20059;-83
2022/01/21 05:44:17;;;;;;;23.00;4.50;;;;;;;;;;5110852;28;20024;-85
2022/01/21 05:46:55;;;;;;;12.40;4.25;;;;;;;;;;5078968;28;20024;-85
2022/01/21 05:49:22;;;;;;;14.05;3.95;;;;;;;;;;5096718;28;20424;-86
2022/01/21 05:51:48;;;;;;;9.90;4.03;;;;;;;;;;5084407;28;20008;-88
2022/01/21 05:54:14;;;;;;;20.02;4.28;;;;;;;;;;5118502;28;20066;-88
2022/01/21 05:56:41;;;;;;;14.05;3.97;;;;;;;;;;5088686;28;20040;-86
2022/01/21 05:59:08;;;;;;;13.75;3.55;;;;;;;;;;5099572;28;20491;-86
2022/01/21 06:01:35;;;;;;;11.65;4.00;;;;;;;;;;5097823;28;20028;-86
2022/01/21 06:04:04;;;;;;;12.52;3.85;;;;;;;;;;5097128;28;20506;-85
2022/01/21 06:06:30;;;;;;;20.98;4.25;;;;;;;;;;5077716;28;20043;-86
2022/01/21 06:09:00;;;;;;;15.93;4.03;;;;;;;;;;5096790;28;20043;-86
2022/01/21 06:11:26;;;;;;;16.60;4.88;;;;;;;;;;5098385;28;20031;-86
2022/01/21 06:13:52;;;;;;;21.35;4.55;;;;;;;;;;5079029;28;20027;-84
2022/01/21 06:16:18;;;;;;;23.33;5.25;;;;;;;;;;5106256;28;20494;-85
2022/01/21 06:18:44;;;;;;;12.30;4.35;;;;;;;;;;5118357;28;20054;-86
2022/01/21 06:21:11;;;;;;;11.93;3.90;;;;;;;;;;5120070;28;20415;-86
2022/01/21 06:23:37;;;;;;;10.85;3.47;;;;;;;;;;5127602;28;20398;-86
2022/01/21 06:26:03;;;;;;;15.52;4.03;;;;;;;;;;5098835;28;20372;-85
2022/01/21 06:28:29;;;;;;;15.45;4.57;;;;;;;;;;5098118;28;20031;-86
2022/01/21 06:30:55;;;;;;;9.25;4.03;;;;;;;;;;5117722;28;20368;-84
2022/01/21 06:33:22;;;;;;;17.10;4.00;;;;;;;;;;5098560;28;20475;-85
2022/01/21 06:35:52;;;;;;;15.52;3.70;;;;;;;;;;5116836;28;20031;-85
2022/01/21 06:38:19;;;;;;;24.00;4.95;;;;;;;;;;5115532;28;20094;-84
2022/01/21 06:40:45;;;;;;;10.50;3.58;;;;;;;;;;5097853;28;20510;-86
2022/01/21 06:43:11;;;;;;;13.75;3.78;;;;;;;;;;5116035;28;20027;-84
2022/01/21 06:45:37;;;;;;;16.98;3.22;;;;;;;;;;5116064;28;20035;-85
2022/01/21 06:48:03;;;;;;;14.20;3.55;;;;;;;;;;5097584;28;20087;-85
2022/01/21 06:50:30;;;;;;;13.65;3.95;;;;;;;;;;5097457;28;20019;-86
2022/01/21 06:52:56;;;;;;;12.82;3.88;;;;;;;;;;5096878;28;20028;-85
2022/01/21 06:55:22;;;;;;;17.77;3.83;;;;;;;;;;5097643;28;20063;-85
2022/01/21 06:57:48;;;;;;;11.85;3.70;;;;;;;;;;5097022;28;20639;-87
2022/01/21 07:00:19;;;;;;;21.15;3.80;;;;;;;;;;5101935;28;20036;-86
2022/01/21 07:02:45;;;;;;;;;;;;;;;;;;5095024;28;20532;-86
2022/01/21 07:05:11;;;;;;;12.82;4.03;;;;;;;;;;5115956;28;19908;-86
2022/01/21 07:07:37;;;;;;;18.33;4.90;;;;;;;;;;5096291;28;20030;-86
2022/01/21 07:10:05;;;;;;;22.55;5.65;;;;;;;;;;5097327;28;20051;-85
2022/01/21 07:12:31;;;;;;;13.38;4.85;;;;;;;;;;5113478;28;20026;-86
2022/01/21 07:14:57;;;;;;;18.70;5.90;;;;;;;;;;5084947;28;20487;-85
2022/01/21 07:17:26;;;;;;;17.55;5.10;;;;;;;;;;5113299;28;20028;-85
2022/01/21 07:19:52;;;;;;;14.30;4.80;;;;;;;;;;5097250;28;20035;-85
2022/01/21 07:22:19;;;;;;;11.55;4.15;;;;;;;;;;5096613;28;20419;-85
2022/01/21 07:24:45;;;;;;;15.05;4.00;;;;;;;;;;5115787;28;20031;-85
2022/01/21 07:27:11;;;;;;;23.38;5.35;;;;;;;;;;5114239;28;20126;-85
2022/01/21 07:29:37;;;;;;;17.42;4.47;;;;;;;;;;5114773;28;20031;-86
2022/01/21 07:32:03;;;;;;;16.13;4.97;;;;;;;;;;5097050;28;20016;-85
2022/01/21 07:34:29;;;;;;;8.50;3.90;;;;;;;;;;5096351;28;20123;-84
2022/01/21 07:36:56;;;;;;;20.98;6.38;;;;;;;;;;5115696;28;20114;-86
2022/01/21 07:39:23;;;;;;;26.90;5.10;;;;;;;;;;5116569;28;20027;-85
2022/01/21 07:41:49;;;;;;;21.45;4.35;;;;;;;;;;5114430;28;20019;-86
2022/01/21 07:44:15;;;;;;;10.93;4.30;;;;;;;;;;5095238;28;20417;-87
2022/01/21 07:46:42;;;;;;;17.20;5.25;;;;;;;;;;5111549;28;20094;-86
2022/01/21 07:49:09;;;;;;;18.52;4.80;;;;;;;;;;5114572;28;20015;-87
2022/01/21 07:51:35;;;;;;;25.58;5.30;;;;;;;;;;5091185;28;20016;-87
2022/01/21 07:54:02;;;;;;;22.30;5.50;;;;;;;;;;5094276;28;20020;-87
2022/01/21 07:56:28;;;;;;;21.17;4.75;;;;;;;;;;5097613;28;20023;-86
2022/01/21 07:58:54;;;;;;;18.45;4.90;;;;;;;;;;5113644;28;20032;-87
2022/01/21 08:01:20;;;;;;;18.77;4.93;;;;;;;;;;5095868;28;20061;-86
2022/01/21 08:03:50;;;;;;;19.48;5.35;;;;;;;;;;5114121;28;20034;-86
2022/01/21 08:06:16;;;;;;;19.33;4.85;;;;;;;;;;5094716;28;20020;-86
2022/01/21 08:08:42;;;;;;;16.23;4.53;;;;;;;;;;5113557;28;20023;-86
2022/01/21 08:11:08;;;;;;;18.52;5.00;;;;;;;;;;5096298;28;20020;-86
2022/01/21 08:13:34;;;;;;;20.20;4.75;;;;;;;;;;5114677;28;20454;-86
2022/01/21 08:16:00;;;;;;;13.52;4.85;;;;;;;;;;5113364;28;20036;-84
2022/01/21 08:18:26;;;;;;;12.02;4.63;;;;;;;;;;5114741;28;20058;-86
2022/01/21 08:20:52;;;;;;;15.52;4.68;;;;;;;;;;5126474;28;20055;-86
2022/01/21 08:23:19;;;;;;;16.92;4.60;;;;;;;;;;5095784;28;20047;-85
2022/01/21 08:25:45;;;;;;;12.27;4.00;;;;;;;;;;5113883;28;20072;-85
2022/01/21 08:28:11;;;;;;;23.40;5.07;;;;;;;;;;5115299;28;20079;-85
2022/01/21 08:30:38;;;;;;;19.95;4.60;;;;;;;;;;5114054;28;20020;-87
2022/01/21 08:33:04;;;;;;;16.15;4.22;;;;;;;;;;5096265;28;20027;-85
2022/01/21 08:35:31;;;;;;;17.20;4.43;;;;;;;;;;5108545;28;20394;-84
2022/01/21 08:37:58;;;;;;;24.58;4.47;;;;;;;;;;5133094;28;20028;-87
2022/01/21 08:40:24;;;;;;;15.45;4.18;;;;;;;;;;5120969;28;20024;-84
2022/01/21 08:42:51;;;;;;;18.38;4.32;;;;;;;;;;5097739;28;20032;-85
2022/01/21 08:45:17;;;;;;;14.65;4.45;;;;;;;;;;5095207;28;20029;-85
2022/01/21 08:47:44;;;;;;;16.13;4.90;;;;;;;;;;5093193;28;20024;-86
2022/01/21 08:50:11;;;;;;;12.82;4.22;;;;;;;;;;5090448;28;20024;-85
2022/01/21 08:52:40;;;;;;;13.73;4.25;;;;;;;;;;5115126;28;20051;-85
2022/01/21 08:55:11;;;;;;;18.58;3.80;;;;;;;;;;5114274;28;20046;-86
2022/01/21 08:57:39;;;;;;;12.90;3.95;;;;;;;;;;5114606;28;20028;-86
2022/01/21 09:00:09;;;;;;;13.70;4.55;;;;;;;;;;5114737;28;20019;-85
2022/01/21 09:02:35;;;;;;;12.63;4.03;;;;;;;;;;5095724;28;20031;-86
2022/01/21 09:05:01;;;;;;;24.83;4.63;;;;;;;;;;5113954;28;20138;-86
2022/01/21 09:07:27;;;;;;;16.65;4.30;;;;;;;;;;5113284;28;20023;-85
2022/01/21 09:09:53;;;;;;;14.75;5.20;;;;;;;;;;5095721;28;20027;-86
2022/01/21 09:12:19;;;;;;;18.67;3.90;;;;;;;;;;5095561;28;20024;-84
2022/01/21 09:14:45;;;;;;;17.45;4.25;;;;;;;;;;5116821;28;20024;-85
2022/01/21 09:17:11;;;;;;;13.43;3.90;;;;;;;;;;5095398;28;20070;-85
2022/01/21 09:19:37;;;;;;;14.43;4.00;;;;;;;;;;5114592;28;20048;-86
2022/01/21 09:22:04;;;;;;;11.80;4.13;;;;;;;;;;5114365;28;20023;-85
2022/01/21 09:24:32;;;;;;;16.55;4.10;;;;;;;;;;5114207;28;20016;-85
2022/01/21 09:26:58;;;;;;;18.88;4.18;;;;;;;;;;5095006;28;20070;-85
2022/01/21 09:29:24;;;;;;;16.48;4.75;;;;;;;;;;5094912;28;20475;-86
2022/01/21 09:31:51;;;;;;;16.70;5.38;;;;;;;;;;5113471;28;20016;-86
2022/01/21 09:34:17;;;;;;;18.27;3.92;;;;;;;;;;5113649;28;20023;-84
2022/01/21 09:36:43;;;;;;;16.05;4.32;;;;;;;;;;5094556;28;20028;-86
2022/01/21 09:39:09;;;;;;;13.55;4.10;;;;;;;;;;5094478;28;20035;-84
2022/01/21 09:41:35;;;;;;;14.15;3.65;;;;;;;;;;5119354;28;20493;-83
2022/01/21 09:44:03;;;;;;;17.70;4.07;;;;;;;;;;5094394;28;20028;-84
2022/01/21 09:46:35;;;;;;;17.98;4.00;;;;;;;;;;5094142;28;20020;-84
2022/01/21 09:49:20;;;;;;;20.60;3.78;;;;;;;;;;5094524;28;20023;-84
2022/01/21 09:51:46;;;;;;;15.07;3.33;;;;;;;;;;5094540;28;20392;-86
2022/01/21 09:54:13;;;;;;;12.35;3.70;;;;;;;;;;5092811;28;20024;-85
2022/01/21 09:56:40;;;;;;;12.10;3.13;;;;;;;;;;5112086;28;20383;-85
2022/01/21 09:59:06;;;;;;;21.23;4.22;;;;;;;;;;5112969;28;20436;-86
2022/01/21 10:01:32;;;;;;;16.10;3.58;;;;;;;;;;5112543;28;20479;-85
2022/01/21 10:03:59;;;;;;;23.38;4.65;;;;;;;;;;5094723;28;20390;-84
2022/01/21 10:06:26;;;;;;;9.77;3.67;;;;;;;;;;5111492;28;20027;-86
2022/01/21 10:08:56;;;;;;;11.05;3.15;;;;;;;;;;5095091;28;20023;-86
2022/01/21 10:11:22;;;;;;;10.35;3.35;;;;;;;;;;5116854;28;20070;-85
2022/01/21 10:13:49;;;;;;;11.45;3.42;;;;;;;;;;5116525;28;20044;-86
2022/01/21 10:16:15;;;;;;;10.43;3.00;;;;;;;;;;5121904;28;20015;-86
2022/01/21 10:18:59;;;;;;;17.13;2.88;;;;;;;;;;5123752;28;20467;-86
2022/01/21 10:21:29;;;;;;;12.38;3.00;;;;;;;;;;5088532;28;20103;-86
2022/01/21 10:24:03;;;;;;;13.32;2.58;;;;;;;;;;5077709;28;20025;-86
2022/01/21 10:26:30;;;;;;;11.93;2.70;;;;;;;;;;5083489;28;20522;-86
2022/01/21 10:28:57;;;;;;;10.18;2.70;;;;;;;;;;5098771;28;20021;-86
2022/01/21 10:31:24;;;;;;;9.77;2.65;;;;;;;;;;5097168;28;20024;-86
2022/01/21 10:33:56;;;;;;;9.90;2.75;;;;;;;;;;5096690;28;20023;-86
2022/01/21 10:36:32;;;;;;;12.57;3.50;;;;;;;;;;5095463;28;20099;-86
2022/01/21 10:39:17;;;;;;;8.52;2.85;;;;;;;;;;5077811;28;20387;-86
2022/01/21 10:41:45;;;;;;;11.05;2.75;;;;;;;;;;5095989;28;20043;-86
2022/01/21 10:44:18;;;;;;;11.18;2.67;;;;;;;;;;5096434;28;20047;-85
2022/01/21 10:46:46;;;;;;;8.00;2.45;;;;;;;;;;5077078;28;20066;-86
2022/01/21 10:49:17;;;;;;;9.30;2.33;;;;;;;;;;5101846;28;20019;-86
2022/01/21 10:51:52;;;;;;;10.15;2.88;;;;;;;;;;5116854;28;20494;-86
2022/01/21 10:54:22;;;;;;;9.88;2.80;;;;;;;;;;5098764;28;20027;-85
2022/01/21 10:57:04;;;;;;;11.88;2.50;;;;;;;;;;5119816;28;20028;-85
2022/01/21 10:59:45;;;;;;;10.50;2.90;;;;;;;;;;5106920;28;20063;-86
2022/01/21 11:02:12;;;;;;;12.63;2.63;;;;;;;;;;5140492;28;20016;-85
2022/01/21 11:04:45;;;;;;;16.52;3.45;;;;;;;;;;5121077;28;20015;-86
2022/01/21 11:07:14;;;;;;;14.07;2.95;;;;;;;;;;5130661;28;20059;-84
2022/01/21 11:09:40;;;;;;;15.23;3.05;;;;;;;;;;5116648;28;20051;-86
2022/01/21 11:12:13;;;;;;;15.18;3.42;;;;;;;;;;5108535;28;20024;-86
2022/01/21 11:14:56;;;;;;;10.68;3.00;;;;;;;;;;5095921;28;20024;-85
2022/01/21 11:17:22;;;;;;;10.00;3.20;;;;;;;;;;5113968;28;20024;-86
2022/01/21 11:20:07;;;;;;;14.90;3.80;;;;;;;;;;5097555;28;20023;-85
2022/01/21 11:22:51;;;;;;;16.33;3.03;;;;;;;;;;5096178;28;20027;-86
2022/01/21 11:25:17;;;;;;;18.55;3.08;;;;;;;;;;5114330;28;20034;-86
2022/01/21 11:27:55;;;;;;;16.67;3.28;;;;;;;;;;5113937;28;20043;-85
2022/01/21 11:30:20;;;;;;;11.73;3.70;;;;;;;;;;5097465;28;20022;-85
2022/01/21 11:32:46;;;;;;;14.45;3.30;;;;;;;;;;5096490;28;20543;-86
2022/01/21 11:35:12;;;;;;;13.73;3.53;;;;;;;;;;5096162;28;20040;-85
2022/01/21 11:37:39;;;;;;;13.93;3.92;;;;;;;;;;5114716;28;20035;-87
2022/01/21 11:40:06;;;;;;;9.68;3.13;;;;;;;;;;5091225;28;20119;-85
2022/01/21 11:42:35;;;;;;;12.90;3.33;;;;;;;;;;5095742;28;20035;-86
2022/01/21 11:45:17;;;;;;;8.40;3.20;;;;;;;;;;5079487;28;20032;-86
2022/01/21 11:48:07;;;;;;;15.40;3.08;;;;;;;;;;5098703;28;20027;-85
2022/01/21 11:50:33;;;;;;;14.70;3.22;;;;;;;;;;5115425;28;20099;-87
2022/01/21 11:52:59;;;;;;;8.30;3.33;;;;;;;;;;5118468;28;20039;-86
2022/01/21 11:55:36;;;;;;;10.43;3.08;;;;;;;;;;5116425;28;20081;-86
2022/01/21 11:58:14;;;;;;;10.35;3.47;;;;;;;;;;5115004;28;20394;-86
2022/01/21 12:00:40;;;;;;;16.42;3.53;;;;;;;;;;5115884;28;20019;-87
2022/01/21 12:03:07;;;;;;;8.95;3.45;;;;;;;;;;5116126;28;20390;-87
2022/01/21 12:05:36;;;;;;;12.13;3.42;;;;;;;;;;5115221;28;20073;-85
2022/01/21 12:08:06;;;;;;;11.73;3.15;;;;;;;;;;5115839;28;20024;-86
2022/01/21 12:10:32;;;;;;;10.75;2.75;;;;;;;;;;5116220;28;20065;-87
2022/01/21 12:13:10;;;;;;;10.85;2.67;;;;;;;;;;5115945;28;20024;-87
2022/01/21 12:18:07;;;;;;;12.57;2.95;;;;;;;;;;5117994;28;20039;-86
2022/01/21 12:20:33;;;;;;;11.88;3.33;;;;;;;;;;5115193;28;20027;-86
2022/01/21 12:23:14;;;;;;;9.40;3.17;;;;;;;;;;5114349;28;20053;-88
2022/01/21 12:25:58;;;;;;;6.95;3.10;;;;;;;;;;5114016;28;20019;-87
2022/01/21 12:28:24;;;;;;;10.98;2.85;;;;;;;;;;5096055;28;20031;-87
2022/01/21 12:30:54;;;;;;;13.80;3.60;;;;;;;;;;5114147;28;20027;-84
2022/01/21 12:33:20;;;;;;;17.73;4.35;;;;;;;;;;5114579;28;20019;-86
2022/01/21 12:35:47;;;;;;;17.40;4.35;;;;;;;;;;5114064;28;20128;-85
2022/01/21 12:40:58;;;;;;;7.68;2.97;;;;;;;;;;5114608;28;20038;-85
2022/01/21 12:43:44;;;;;;;16.00;3.70;;;;;;;;;;5099985;28;20027;-86
2022/01/21 12:46:14;;;;;;;9.85;3.22;;;;;;;;;;5120525;28;20039;-86
2022/01/21 12:48:40;;;;;;;18.80;3.70;;;;;;;;;;5136053;28;20023;-84
2022/01/21 12:51:15;;;;;;;11.65;4.57;;;;;;;;;;5117973;28;20032;-84
2022/01/21 12:55:55;;;;;;;13.52;3.47;;;;;;;;;;5115965;28;20019;-84
2022/01/21 12:56:28;;;;;;;9.82;3.42;;;;;;;;;;5133191;28;20015;-86
2022/01/21 12:58:55;;;;;;;13.85;3.97;;;;;;;;;;5105436;28;20024;-85
2022/01/21 13:01:21;;;;;;;15.82;3.33;;;;;;;;;;5096340;28;20092;-85
2022/01/21 13:04:10;;;;;;;14.13;4.05;;;;;;;;;;5114735;28;20475;-85
2022/01/21 13:06:38;;;;;;;12.55;3.80;;;;;;;;;;5095264;28;20077;-86
2022/01/21 13:09:06;;;;;;;10.15;3.90;;;;;;;;;;5114948;28;20105;-85
2022/01/21 13:11:34;;;;;;;12.52;3.58;;;;;;;;;;5096120;28;20538;-84
2022/01/21 13:14:33;;;;;;;11.77;3.20;;;;;;;;;;5096246;28;20509;-85
2022/01/21 13:17:05;;;;;;;9.40;2.70;;;;;;;;;;5096422;28;20028;-85
2022/01/21 13:19:41;;;;;;;6.18;2.80;;;;;;;;;;5099067;28;20034;-84
2022/01/21 13:22:14;;;;;;;6.43;2.08;;;;;;;;;;5095841;28;20028;-85
2022/01/21 13:24:51;;;;;;;8.65;2.75;;;;;;;;;;5111990;28;20032;-83
2022/01/21 13:27:17;;;;;;;10.73;3.25;;;;;;;;;;5115490;28;20028;-85
2022/01/21 13:29:43;;;;;;;12.82;3.10;;;;;;;;;;5088007;28;20096;-86
2022/01/21 13:32:09;;;;;;;12.38;2.40;;;;;;;;;;5079048;28;20021;-85
2022/01/21 13:34:39;;;;;;;9.15;2.22;;;;;;;;;;5099636;28;20103;-86
2022/01/21 13:37:06;;;;;;;9.07;2.33;;;;;;;;;;5095207;28;20024;-87
2022/01/21 13:39:34;;;;;;;10.35;2.50;;;;;;;;;;5095469;28;20063;-85
2022/01/21 13:42:03;;;;;;;13.05;3.10;;;;;;;;;;5095746;28;20024;-86
2022/01/21 13:44:30;;;;;;;7.53;2.72;;;;;;;;;;5084150;28;20066;-86
2022/01/21 13:46:57;;;;;;;5.57;1.85;;;;;;;;;;5082566;28;20028;-86
2022/01/21 13:49:23;;;;;;;5.57;1.90;;;;;;;;;;5090237;28;20118;-86
2022/01/21 13:51:57;;;;;;;9.50;3.22;;;;;;;;;;5120882;28;20016;-84
2022/01/21 13:54:30;;;;;;;21.33;8.98;;;;;;;;;;5101895;28;20572;-85
2022/01/21 13:56:56;;;;;;;14.55;4.40;;;;;;;;;;5120098;28;20032;-85
2022/01/21 13:59:22;;;;;;;7.03;2.53;;;;;;;;;;5120566;28;20034;-85
2022/01/21 14:01:48;;;;;;;5.90;2.25;;;;;;;;;;5120107;28;20081;-86
2022/01/21 14:04:14;;;;;;;6.05;2.38;;;;;;;;;;5099810;28;20031;-85
2022/01/21 14:06:42;;;;;;;8.85;2.05;;;;;;;;;;5100917;28;20031;-85
2022/01/21 14:09:08;;;;;;;8.10;2.25;;;;;;;;;;5102856;28;20471;-86
2022/01/21 14:11:41;;;;;;;6.70;3.55;;;;;;;;;;5121182;28;20038;-86
2022/01/21 14:14:12;;;;;;;11.07;2.10;;;;;;;;;;5121506;28;20020;-85
2022/01/21 14:16:47;;;;;;;10.68;2.38;;;;;;;;;;5114214;28;20035;-86
2022/01/21 14:19:14;;;;;;;9.55;3.03;;;;;;;;;;5111478;28;20475;-85
2022/01/21 14:21:42;;;;;;;4.85;2.08;;;;;;;;;;5081496;28;20032;-85
2022/01/21 14:24:08;;;;;;;7.45;2.50;;;;;;;;;;5088718;28;20035;-85
2022/01/21 14:26:43;;;;;;;8.77;3.80;;;;;;;;;;5102245;28;20061;-86
2022/01/21 14:29:19;;;;;;;7.88;2.35;;;;;;;;;;5119673;28;20037;-86
2022/01/21 14:31:49;;;;;;;4.63;1.90;;;;;;;;;;5121834;28;20028;-85
2022/01/21 14:34:35;;;;;;;9.57;2.95;;;;;;;;;;5100946;28;20038;-87
2022/01/21 14:37:06;;;;;;;7.13;2.03;;;;;;;;;;5096550;28;20446;-85
2022/01/21 14:39:35;;;;;;;3.60;2.20;;;;;;;;;;5098574;28;20028;-85
2022/01/21 14:42:02;;;;;;;5.57;2.00;;;;;;;;;;5085143;28;20472;-85
2022/01/21 14:44:48;;;;;;;7.47;1.88;;;;;;;;;;5103408;28;20118;-86
2022/01/21 14:47:17;;;;;;;7.45;2.08;;;;;;;;;;5106219;28;20035;-86
2022/01/21 14:49:48;;;;;;;4.25;1.80;;;;;;;;;;5111065;28;20496;-86
2022/01/21 14:55:22;;;;;;;12.48;2.10;;;;;;;;;;5123678;28;19911;-88
2022/01/21 14:57:51;;;;;;;4.57;2.35;;;;;;;;;;5112734;28;20028;-87
2022/01/21 15:00:31;;;;;;;5.20;1.63;;;;;;;;;;5097312;28;20016;-86
2022/01/21 15:03:11;;;;;;;6.07;2.03;;;;;;;;;;5079310;28;20107;-87
2022/01/21 15:05:38;;;;;;;6.43;2.40;;;;;;;;;;5079021;28;20024;-87
2022/01/21 15:08:04;;;;;;;5.70;1.92;;;;;;;;;;5095481;28;20028;-85
2022/01/21 15:10:44;;;;;;;10.45;1.98;;;;;;;;;;5096656;28;20013;-86
2022/01/21 15:16:14;;;;;;;7.72;2.45;;;;;;;;;;5104130;28;20054;-86
2022/01/21 15:18:47;;;;;;;2.70;1.67;;;;;;;;;;5083211;28;20024;-85
2022/01/21 15:21:14;;;;;;;4.30;1.77;;;;;;;;;;5078685;28;20111;-85
2022/01/21 15:23:40;;;;;;;6.45;2.50;;;;;;;;;;5095520;28;20060;-85
2022/01/21 15:26:06;;;;;;;6.93;3.05;;;;;;;;;;5095698;28;20430;-87
2022/01/21 15:28:32;;;;;;;7.53;3.63;;;;;;;;;;5115274;28;20475;-84
2022/01/21 15:30:58;;;;;;;9.77;3.00;;;;;;;;;;5117578;28;20405;-85